CheckWX is a tool to help pilots better visualize weather data.  It is not intended as a substitute for an official pre-flight weather briefing.

06:27:18 UTC

CYIO METAR
Pond Inlet Airport
Pond Inlet, Canada
Current

27 mins ago

CYIO 230600Z AUTO 15011KT 9SM CLR M28/M31 A2986 RMK SLP123
Observed
Apr-23 @ 06:00 UTC
Wind
  • 150° at 11 KTS
Visibility
9 SM
Flight Rules
VFR
Cloud Levels
  • Clear skies
Temperature
-28°C / -18°F
Dewpoint
-31°C / -24°F
Humidity
75%
Altimeter
29.86" Hg
Pressure
1011.22 hPa
Previous

1 hour ago

CYIO 230500Z AUTO 15011KT 9SM CLR M28/M31 A2985 RMK SLP121
Observed
Apr-23 @ 05:00 UTC
Wind
  • 150° at 11 KTS
Visibility
9 SM
Flight Rules
VFR
Cloud Levels
  • Clear skies
Temperature
-28°C / -18°F
Dewpoint
-31°C / -24°F
Humidity
75%
Altimeter
29.85" Hg
Pressure
1010.82 hPa
Previous

2 hours ago

CYIO 230400Z AUTO 16010KT 9SM CLR M28/M31 A2985 RMK SLP121
Observed
Apr-23 @ 04:00 UTC
Wind
  • 160° at 10 KTS
Visibility
9 SM
Flight Rules
VFR
Cloud Levels
  • Clear skies
Temperature
-28°C / -18°F
Dewpoint
-31°C / -24°F
Humidity
75%
Altimeter
29.85" Hg
Pressure
1010.82 hPa